createdAt,value
2018-07-25T00:00:11.565Z,78.63
2018-07-25T00:02:42.918Z,78.64
2018-07-25T00:22:36.151Z,79.07
2018-07-25T00:42:28.140Z,78.55
2018-07-25T00:44:58.220Z,78.80
2018-07-25T00:47:28.222Z,78.56
2018-07-25T00:49:57.760Z,78.52
2018-07-25T00:52:27.577Z,78.34
2018-07-25T00:54:57.343Z,78.62
2018-07-25T00:57:27.174Z,78.26
2018-07-25T00:59:56.930Z,78.49
2018-07-25T01:02:26.757Z,78.21
2018-07-25T01:04:56.561Z,78.51
2018-07-25T01:07:26.145Z,78.45
2018-07-25T01:09:55.852Z,78.37
2018-07-25T01:47:11.042Z,78.33
2018-07-25T01:49:40.544Z,78.52
2018-07-25T01:52:10.865Z,78.36
2018-07-25T01:54:41.304Z,78.55
2018-07-25T01:57:10.732Z,78.43
2018-07-25T01:59:40.309Z,78.33
2018-07-25T02:02:10.366Z,78.09
2018-07-25T02:04:40.161Z,78.29
2018-07-25T02:07:09.692Z,78.27
2018-07-25T02:09:39.250Z,78.79
2018-07-25T02:12:09.153Z,78.80
2018-07-25T02:32:02.084Z,79.73
2018-07-25T02:34:31.654Z,79.54
2018-07-25T02:37:01.397Z,79.69
2018-07-25T02:39:31.460Z,79.11
2018-07-25T02:42:00.833Z,79.26
2018-07-25T02:44:30.128Z,79.54
2018-07-25T02:47:00.120Z,79.22
2018-07-25T02:49:29.483Z,79.30
2018-07-25T02:51:59.584Z,79.41
2018-07-25T02:54:29.592Z,79.57
2018-07-25T02:56:59.361Z,79.17
2018-07-25T02:59:29.075Z,79.37
2018-07-25T03:19:21.261Z,79.27
2018-07-25T03:21:50.915Z,79.07
2018-07-25T03:24:20.395Z,79.42
2018-07-25T03:26:50.425Z,79.28
2018-07-25T03:29:20.148Z,79.06
2018-07-25T03:31:49.466Z,79.15
2018-07-25T03:34:19.251Z,79.19
2018-07-25T03:36:48.684Z,79.29
2018-07-25T03:39:18.207Z,79.15
2018-07-25T03:41:48.222Z,79.07
2018-07-25T03:44:18.116Z,78.75
2018-07-25T03:46:47.636Z,78.65
2018-07-25T03:49:17.773Z,78.68
2018-07-25T03:51:47.208Z,78.69
2018-07-25T03:54:16.664Z,79.00
2018-07-25T03:56:46.269Z,78.50
2018-07-25T03:59:16.112Z,78.31
2018-07-25T04:01:45.681Z,78.01
2018-07-25T04:04:15.400Z,78.01
2018-07-25T04:06:45.293Z,77.93
2018-07-25T04:09:15.092Z,77.58
2018-07-25T04:11:45.058Z,77.83
2018-07-25T04:14:14.843Z,78.09
2018-07-25T04:16:44.243Z,78.10
2018-07-25T04:19:14.025Z,77.82
2018-07-25T04:39:08.879Z,77.36
2018-07-25T04:41:39.034Z,77.42
2018-07-25T04:44:08.415Z,77.03
2018-07-25T04:46:38.359Z,76.64
2018-07-25T04:49:07.717Z,76.33
2018-07-25T04:51:37.282Z,76.65
2018-07-25T04:54:06.746Z,75.97
2018-07-25T04:56:36.782Z,76.31
2018-07-25T04:59:06.497Z,76.16
2018-07-25T05:01:36.140Z,75.90
2018-07-25T05:04:05.614Z,75.90
2018-07-25T05:06:35.424Z,75.81
2018-07-25T05:26:26.571Z,77.51
2018-07-25T05:28:56.139Z,77.42
2018-07-25T05:31:25.862Z,77.22
2018-07-25T05:33:55.681Z,77.38
2018-07-25T05:36:25.230Z,77.10
2018-07-25T05:38:55.031Z,76.72
2018-07-25T05:58:47.188Z,75.50
2018-07-25T06:01:17.183Z,75.82
2018-07-25T06:03:46.976Z,75.29
2018-07-25T06:06:16.453Z,75.49
2018-07-25T06:08:46.053Z,75.59
2018-07-25T06:11:15.492Z,75.28
2018-07-25T06:31:07.630Z,74.52
2018-07-25T06:33:37.153Z,74.42
2018-07-25T06:36:07.408Z,74.28
2018-07-25T06:55:59.471Z,76.66
2018-07-25T06:58:28.950Z,75.87
2018-07-25T07:00:58.761Z,75.95
2018-07-25T07:03:28.942Z,76.08
2018-07-25T07:23:21.295Z,77.62
2018-07-25T07:25:54.599Z,77.33
2018-07-25T07:28:24.149Z,77.15
2018-07-25T07:30:53.631Z,76.11
2018-07-25T07:33:23.586Z,75.63
2018-07-25T07:35:53.033Z,76.29
2018-07-25T07:38:22.498Z,76.20
2018-07-25T07:40:52.249Z,75.69
2018-07-25T07:43:21.813Z,76.37
2018-07-25T07:45:51.599Z,74.80
2018-07-25T07:48:21.229Z,73.11
2018-07-25T07:50:50.831Z,73.22
2018-07-25T07:53:20.586Z,72.87
2018-07-25T07:55:50.361Z,72.37
2018-07-25T07:58:19.956Z,72.63
2018-07-25T08:18:11.784Z,69.86
2018-07-25T08:20:41.610Z,69.52
2018-07-25T08:23:11.224Z,68.97
2018-07-25T08:43:02.586Z,67.19
2018-07-25T08:45:32.378Z,67.91
2018-07-25T08:48:02.132Z,68.53
2018-07-25T08:50:31.958Z,68.83
2018-07-25T09:10:23.488Z,71.54
2018-07-25T09:12:52.969Z,72.02
2018-07-25T09:15:22.360Z,71.82
2018-07-25T09:49:43.040Z,75.89
2018-07-25T09:52:12.743Z,76.06
2018-07-25T09:54:42.568Z,76.17
2018-07-25T09:57:12.121Z,75.65
2018-07-25T10:17:04.234Z,74.31
2018-07-25T10:19:33.859Z,72.90
2018-07-25T10:22:03.372Z,71.73
2018-07-25T10:24:33.618Z,72.01
2018-07-25T10:27:03.237Z,71.47
2018-07-25T10:29:36.188Z,71.90
2018-07-25T10:32:05.699Z,72.86
2018-07-25T10:34:35.601Z,71.81
2018-07-25T10:37:05.013Z,72.20
2018-07-25T10:39:34.741Z,69.66
2018-07-25T10:42:04.243Z,69.82
2018-07-25T10:44:34.179Z,71.51
2018-07-25T10:47:03.802Z,68.01
2018-07-25T10:49:33.839Z,69.18
2018-07-25T10:52:03.486Z,69.84
2018-07-25T10:54:33.206Z,69.87
2018-07-25T10:57:02.977Z,71.30
2018-07-25T10:59:32.897Z,68.45
2018-07-25T11:02:02.471Z,68.01
2018-07-25T11:04:32.076Z,70.23
2018-07-25T11:07:01.913Z,66.45
2018-07-25T11:09:31.593Z,66.14
2018-07-25T11:12:01.267Z,65.72
2018-07-25T11:14:31.020Z,66.43
2018-07-25T11:17:00.862Z,65.85
2018-07-25T11:19:30.523Z,64.99
2018-07-25T11:22:00.568Z,63.44
2018-07-25T11:24:30.110Z,62.96
2018-07-25T11:27:00.189Z,61.23
2018-07-25T11:29:31.278Z,60.92
2018-07-25T11:32:02.055Z,61.12
2018-07-25T11:34:31.672Z,61.54
2018-07-25T11:37:01.396Z,60.41
2018-07-25T11:39:31.138Z,60.19
2018-07-25T11:42:01.191Z,61.73
2018-07-25T11:44:30.604Z,61.30
2018-07-25T11:46:59.933Z,61.29
2018-07-25T11:49:29.448Z,61.45
2018-07-25T11:51:59.014Z,60.38
2018-07-25T11:54:28.937Z,59.76
2018-07-25T11:56:58.669Z,58.39
2018-07-25T11:59:27.977Z,59.78
2018-07-25T12:19:20.606Z,61.72
2018-07-25T12:21:50.168Z,62.68
2018-07-25T12:24:19.714Z,61.55
2018-07-25T12:26:49.726Z,62.36
2018-07-25T12:29:19.317Z,61.82
2018-07-25T12:49:11.829Z,54.89
2018-07-25T13:09:06.770Z,50.15
2018-07-25T13:11:36.709Z,49.89
2018-07-25T13:14:06.460Z,48.68
2018-07-25T13:16:36.375Z,49.15
2018-07-25T13:50:58.125Z,47.44
2018-07-25T13:53:27.526Z,47.46
2018-07-25T14:13:19.065Z,45.45
2018-07-25T14:15:49.184Z,47.95
2018-07-25T14:18:18.968Z,49.06
2018-07-25T14:20:49.005Z,48.88
2018-07-25T14:23:19.208Z,48.37
2018-07-25T14:25:48.979Z,48.48
2018-07-25T14:28:18.635Z,47.33
2018-07-25T14:30:48.842Z,46.62
2018-07-25T14:33:18.819Z,48.37
2018-07-25T14:35:48.759Z,50.63
2018-07-25T14:38:18.973Z,52.22
2018-07-25T14:40:48.614Z,52.26
2018-07-25T14:43:18.779Z,52.07
2018-07-25T14:45:49.060Z,50.73
2018-07-25T14:48:18.680Z,50.40
2018-07-25T14:50:48.191Z,49.29
2018-07-25T14:53:32.500Z,50.12
2018-07-25T14:56:08.051Z,50.88
2018-07-25T14:58:38.891Z,50.12
2018-07-25T15:01:09.688Z,49.20
2018-07-25T15:03:40.061Z,47.06
2018-07-25T15:06:11.151Z,47.18
2018-07-25T15:08:41.597Z,48.53
2018-07-25T15:11:43.038Z,49.15
2018-07-25T15:14:19.056Z,50.00
2018-07-25T15:34:16.224Z,52.91
2018-07-25T15:36:49.175Z,52.88
2018-07-25T15:39:26.145Z,53.16
2018-07-25T15:41:57.958Z,53.64
2018-07-25T15:44:28.535Z,53.45
2018-07-25T15:47:03.094Z,53.51
2018-07-25T15:49:38.360Z,53.89
2018-07-25T15:52:08.866Z,53.09
2018-07-25T15:54:39.426Z,52.31
2018-07-25T15:57:11.525Z,51.22
2018-07-25T15:59:41.547Z,49.42
2018-07-25T16:19:34.497Z,56.34
2018-07-25T16:22:05.572Z,56.80
2018-07-25T16:41:58.961Z,63.19
2018-07-25T16:44:29.378Z,63.61
2018-07-25T16:47:05.107Z,63.44
2018-07-25T16:52:34.045Z,64.37
2018-07-25T16:55:10.093Z,63.95
2018-07-25T16:57:44.370Z,64.27
2018-07-25T17:00:18.454Z,64.43
2018-07-25T17:02:48.742Z,64.25
2018-07-25T17:05:18.848Z,62.65
2018-07-25T17:07:48.478Z,62.63
2018-07-25T17:13:02.799Z,63.95
2018-07-25T17:15:43.395Z,64.99
2018-07-25T17:18:24.903Z,64.65
2018-07-25T17:20:54.857Z,65.45
2018-07-25T17:23:24.485Z,65.87
2018-07-25T17:51:58.530Z,67.43
2018-07-25T18:11:51.899Z,68.39
2018-07-25T18:14:22.981Z,67.99
2018-07-25T18:34:19.963Z,68.71
2018-07-25T18:36:49.570Z,68.70
2018-07-25T18:39:19.804Z,68.17
2018-07-25T18:41:50.162Z,68.11
2018-07-25T18:44:20.683Z,68.20
2018-07-25T18:46:54.907Z,68.28
2018-07-25T18:49:29.080Z,68.13
2018-07-25T18:51:59.114Z,67.93
2018-07-25T19:11:54.105Z,68.99
2018-07-25T19:15:36.790Z,68.47
2018-07-25T19:18:06.510Z,68.85
2018-07-25T19:20:37.539Z,68.44
2018-07-25T19:23:07.577Z,68.52
2018-07-25T19:25:44.235Z,68.61
2018-07-25T19:45:35.536Z,69.54
2018-07-25T20:05:27.450Z,70.79
2018-07-25T20:07:57.184Z,70.94
2018-07-25T20:10:27.716Z,71.25
2018-07-25T20:12:57.557Z,71.52
2018-07-25T20:15:31.882Z,71.45
2018-07-25T20:18:01.810Z,71.04
2018-07-25T20:20:31.834Z,71.12
2018-07-25T20:23:01.567Z,71.25
2018-07-25T20:25:31.039Z,71.23
2018-07-25T20:28:00.711Z,70.96
2018-07-25T20:30:31.086Z,71.26
2018-07-25T20:33:02.964Z,71.62
2018-07-25T20:35:36.040Z,71.36
2018-07-25T20:38:05.858Z,71.29
2018-07-25T20:40:35.640Z,71.72
2018-07-25T20:43:05.300Z,71.64
2018-07-25T20:45:35.205Z,71.99
2018-07-25T20:48:04.694Z,72.12
2018-07-25T20:50:34.129Z,72.45
2018-07-25T20:53:03.827Z,72.35
2018-07-25T20:55:33.919Z,73.11
2018-07-25T20:58:03.389Z,73.39
2018-07-25T21:00:34.548Z,73.64
2018-07-25T21:03:06.132Z,73.78
2018-07-25T21:05:36.103Z,73.91
2018-07-25T21:08:05.663Z,73.96
2018-07-25T21:10:35.065Z,73.91
2018-07-25T21:13:04.962Z,73.48
2018-07-25T21:15:34.531Z,73.50
2018-07-25T21:18:04.039Z,73.54
2018-07-25T21:20:33.895Z,73.87
2018-07-25T21:23:03.360Z,73.71
2018-07-25T21:25:32.888Z,73.62
2018-07-25T21:28:02.726Z,73.75
2018-07-25T21:30:38.995Z,73.40
2018-07-25T21:33:08.904Z,73.62
2018-07-25T21:35:41.062Z,73.59
2018-07-25T21:38:10.729Z,73.88
2018-07-25T21:40:40.353Z,73.85
2018-07-25T21:43:09.852Z,73.76
2018-07-25T21:45:41.394Z,74.08
2018-07-25T21:48:11.110Z,73.53
2018-07-25T21:50:40.773Z,73.90
2018-07-25T21:53:10.903Z,73.91
2018-07-25T21:55:40.561Z,74.34
2018-07-25T21:58:10.546Z,74.50
2018-07-25T22:00:44.584Z,74.58
2018-07-25T22:03:14.717Z,74.25
2018-07-25T22:05:44.729Z,74.51
2018-07-25T22:08:15.486Z,74.61
2018-07-25T22:10:45.388Z,74.73
2018-07-25T22:13:17.516Z,74.59
2018-07-25T22:15:47.699Z,74.47
2018-07-25T22:18:17.700Z,74.17
2018-07-25T22:20:47.803Z,74.33
2018-07-25T22:23:19.024Z,74.53
2018-07-25T22:25:49.041Z,74.22
2018-07-25T22:28:19.175Z,74.21
2018-07-25T22:30:49.242Z,74.31
2018-07-25T22:33:19.425Z,74.20
2018-07-25T22:35:50.577Z,74.37
2018-07-25T22:38:21.336Z,74.26
2018-07-25T22:40:51.159Z,74.64
2018-07-25T22:43:21.143Z,74.09
2018-07-25T22:45:52.028Z,74.33
2018-07-25T22:48:25.228Z,73.84
2018-07-25T22:50:54.930Z,73.97
2018-07-25T22:53:24.641Z,74.06
2018-07-25T22:55:54.093Z,73.95
2018-07-25T22:58:26.849Z,73.96
2018-07-25T23:00:57.595Z,73.63
2018-07-25T23:03:28.746Z,73.99
2018-07-25T23:05:58.360Z,73.69
2018-07-25T23:08:28.089Z,73.89
2018-07-25T23:10:58.006Z,73.92
2018-07-25T23:13:27.663Z,74.12
2018-07-25T23:15:57.209Z,74.26
2018-07-25T23:18:27.167Z,74.15
2018-07-25T23:20:57.301Z,74.51
2018-07-25T23:23:27.039Z,74.65
2018-07-25T23:25:57.260Z,74.54
2018-07-25T23:28:28.042Z,74.17
2018-07-25T23:30:58.801Z,74.52
2018-07-25T23:33:28.601Z,74.37
2018-07-25T23:35:59.859Z,74.30
2018-07-25T23:38:29.720Z,74.52
2018-07-25T23:40:59.252Z,74.32
2018-07-25T23:43:29.272Z,74.84
2018-07-25T23:45:59.025Z,74.77
2018-07-25T23:48:28.654Z,74.95
2018-07-25T23:50:58.566Z,75.00
2018-07-25T23:53:29.100Z,75.09
2018-07-25T23:55:58.701Z,74.63
2018-07-25T23:58:28.269Z,74.61
